sensor_id;sensor_type;location;lat;lon;timestamp;P1;durP1;ratioP1;P2;durP2;ratioP2
317;SDS011;146;53.448;10.228;2022-10-01T00:00:55;4.60;;;4.30;;
317;SDS011;146;53.448;10.228;2022-10-01T00:03:23;5.17;;;4.67;;
317;SDS011;146;53.448;10.228;2022-10-01T00:05:58;4.20;;;3.93;;
317;SDS011;146;53.448;10.228;2022-10-01T00:08:25;4.70;;;4.30;;
317;SDS011;146;53.448;10.228;2022-10-01T00:10:53;4.67;;;4.27;;
317;SDS011;146;53.448;10.228;2022-10-01T00:13:19;4.07;;;3.70;;
317;SDS011;146;53.448;10.228;2022-10-01T00:15:46;4.73;;;4.30;;
317;SDS011;146;53.448;10.228;2022-10-01T00:18:13;5.23;;;4.67;;
317;SDS011;146;53.448;10.228;2022-10-01T00:20:40;5.70;;;4.53;;
317;SDS011;146;53.448;10.228;2022-10-01T00:23:09;4.73;;;4.30;;
317;SDS011;146;53.448;10.228;2022-10-01T00:25:36;6.53;;;4.27;;
317;SDS011;146;53.448;10.228;2022-10-01T00:28:03;4.40;;;3.87;;
317;SDS011;146;53.448;10.228;2022-10-01T00:30:30;4.50;;;4.10;;
317;SDS011;146;53.448;10.228;2022-10-01T00:32:57;4.77;;;4.23;;
317;SDS011;146;53.448;10.228;2022-10-01T00:35:24;4.10;;;3.80;;
317;SDS011;146;53.448;10.228;2022-10-01T00:37:51;4.63;;;4.23;;
317;SDS011;146;53.448;10.228;2022-10-01T00:40:20;4.60;;;4.30;;
317;SDS011;146;53.448;10.228;2022-10-01T00:42:47;4.57;;;4.17;;
317;SDS011;146;53.448;10.228;2022-10-01T00:45:14;4.60;;;4.20;;
317;SDS011;146;53.448;10.228;2022-10-01T00:47:42;6.30;;;4.00;;
317;SDS011;146;53.448;10.228;2022-10-01T00:50:14;5.53;;;5.03;;
317;SDS011;146;53.448;10.228;2022-10-01T00:52:46;4.33;;;4.03;;
317;SDS011;146;53.448;10.228;2022-10-01T00:55:18;5.20;;;4.70;;
317;SDS011;146;53.448;10.228;2022-10-01T00:57:48;4.90;;;4.40;;
317;SDS011;146;53.448;10.228;2022-10-01T01:00:15;5.10;;;4.70;;
317;SDS011;146;53.448;10.228;2022-10-01T01:02:43;5.10;;;4.70;;
317;SDS011;146;53.448;10.228;2022-10-01T01:05:09;4.30;;;4.00;;
317;SDS011;146;53.448;10.228;2022-10-01T01:07:37;4.40;;;4.10;;
317;SDS011;146;53.448;10.228;2022-10-01T01:10:08;4.23;;;3.83;;
317;SDS011;146;53.448;10.228;2022-10-01T01:12:42;4.27;;;3.97;;
317;SDS011;146;53.448;10.228;2022-10-01T01:15:25;3.87;;;3.67;;
317;SDS011;146;53.448;10.228;2022-10-01T01:18:01;3.50;;;3.30;;
317;SDS011;146;53.448;10.228;2022-10-01T01:20:41;6.47;;;4.70;;
317;SDS011;146;53.448;10.228;2022-10-01T01:23:32;6.23;;;4.77;;
317;SDS011;146;53.448;10.228;2022-10-01T01:26:10;4.43;;;4.03;;
317;SDS011;146;53.448;10.228;2022-10-01T01:28:47;4.30;;;3.97;;
317;SDS011;146;53.448;10.228;2022-10-01T01:31:18;4.50;;;4.10;;
317;SDS011;146;53.448;10.228;2022-10-01T01:33:49;4.23;;;3.83;;
317;SDS011;146;53.448;10.228;2022-10-01T01:36:20;4.23;;;3.83;;
317;SDS011;146;53.448;10.228;2022-10-01T01:38:52;3.50;;;3.20;;
317;SDS011;146;53.448;10.228;2022-10-01T01:41:22;4.50;;;4.10;;
317;SDS011;146;53.448;10.228;2022-10-01T01:43:52;4.47;;;4.17;;
317;SDS011;146;53.448;10.228;2022-10-01T01:46:22;4.20;;;3.90;;
317;SDS011;146;53.448;10.228;2022-10-01T01:48:56;5.10;;;3.73;;
317;SDS011;146;53.448;10.228;2022-10-01T01:51:26;4.73;;;4.30;;
317;SDS011;146;53.448;10.228;2022-10-01T01:53:58;4.03;;;3.63;;
317;SDS011;146;53.448;10.228;2022-10-01T01:56:25;3.80;;;3.60;;
317;SDS011;146;53.448;10.228;2022-10-01T01:58:53;5.00;;;4.60;;
317;SDS011;146;53.448;10.228;2022-10-01T02:01:31;3.93;;;3.60;;
317;SDS011;146;53.448;10.228;2022-10-01T02:04:00;3.90;;;3.60;;
317;SDS011;146;53.448;10.228;2022-10-01T02:06:30;4.10;;;3.80;;
317;SDS011;146;53.448;10.228;2022-10-01T02:09:09;3.50;;;3.30;;
317;SDS011;146;53.448;10.228;2022-10-01T02:11:43;3.00;;;2.80;;
317;SDS011;146;53.448;10.228;2022-10-01T02:14:29;5.50;;;5.00;;
317;SDS011;146;53.448;10.228;2022-10-01T02:17:04;3.73;;;3.43;;
317;SDS011;146;53.448;10.228;2022-10-01T02:19:39;3.43;;;3.17;;
317;SDS011;146;53.448;10.228;2022-10-01T02:22:11;3.40;;;2.83;;
317;SDS011;146;53.448;10.228;2022-10-01T02:24:43;5.00;;;2.93;;
317;SDS011;146;53.448;10.228;2022-10-01T02:27:14;3.77;;;3.47;;
317;SDS011;146;53.448;10.228;2022-10-01T02:29:46;3.67;;;3.43;;
317;SDS011;146;53.448;10.228;2022-10-01T02:32:15;3.70;;;3.43;;
317;SDS011;146;53.448;10.228;2022-10-01T02:34:44;3.40;;;3.20;;
317;SDS011;146;53.448;10.228;2022-10-01T02:37:14;3.67;;;3.37;;
317;SDS011;146;53.448;10.228;2022-10-01T02:39:42;3.10;;;2.90;;
317;SDS011;146;53.448;10.228;2022-10-01T02:42:11;3.20;;;3.00;;
317;SDS011;146;53.448;10.228;2022-10-01T02:44:42;4.70;;;3.00;;
317;SDS011;146;53.448;10.228;2022-10-01T02:47:13;3.43;;;3.17;;
317;SDS011;146;53.448;10.228;2022-10-01T02:49:44;3.53;;;3.20;;
317;SDS011;146;53.448;10.228;2022-10-01T02:52:13;2.83;;;2.63;;
317;SDS011;146;53.448;10.228;2022-10-01T02:54:48;3.47;;;3.17;;
317;SDS011;146;53.448;10.228;2022-10-01T02:57:18;4.07;;;3.77;;
317;SDS011;146;53.448;10.228;2022-10-01T02:59:47;2.73;;;2.53;;
317;SDS011;146;53.448;10.228;2022-10-01T03:02:15;3.50;;;3.03;;
317;SDS011;146;53.448;10.228;2022-10-01T03:04:42;3.60;;;3.40;;
317;SDS011;146;53.448;10.228;2022-10-01T03:07:12;3.07;;;2.87;;
317;SDS011;146;53.448;10.228;2022-10-01T03:09:39;4.83;;;3.50;;
317;SDS011;146;53.448;10.228;2022-10-01T03:12:05;2.90;;;2.70;;
317;SDS011;146;53.448;10.228;2022-10-01T03:14:34;3.13;;;2.83;;
317;SDS011;146;53.448;10.228;2022-10-01T03:17:03;3.40;;;3.10;;
317;SDS011;146;53.448;10.228;2022-10-01T03:19:31;3.33;;;3.13;;
317;SDS011;146;53.448;10.228;2022-10-01T03:21:58;3.00;;;2.80;;
317;SDS011;146;53.448;10.228;2022-10-01T03:24:25;3.20;;;2.90;;
317;SDS011;146;53.448;10.228;2022-10-01T03:26:52;2.80;;;2.60;;
317;SDS011;146;53.448;10.228;2022-10-01T03:29:19;3.53;;;3.30;;
317;SDS011;146;53.448;10.228;2022-10-01T03:31:46;3.50;;;3.20;;
317;SDS011;146;53.448;10.228;2022-10-01T03:34:13;3.30;;;3.00;;
317;SDS011;146;53.448;10.228;2022-10-01T03:36:41;3.07;;;2.87;;
317;SDS011;146;53.448;10.228;2022-10-01T03:39:08;3.60;;;3.30;;
317;SDS011;146;53.448;10.228;2022-10-01T03:41:35;3.30;;;3.10;;
317;SDS011;146;53.448;10.228;2022-10-01T03:44:02;3.40;;;3.10;;
317;SDS011;146;53.448;10.228;2022-10-01T03:46:28;3.67;;;2.97;;
317;SDS011;146;53.448;10.228;2022-10-01T03:48:55;3.10;;;2.90;;
317;SDS011;146;53.448;10.228;2022-10-01T03:51:25;3.40;;;2.87;;
317;SDS011;146;53.448;10.228;2022-10-01T03:53:53;4.23;;;3.43;;
317;SDS011;146;53.448;10.228;2022-10-01T03:56:20;3.13;;;2.83;;
317;SDS011;146;53.448;10.228;2022-10-01T03:58:47;2.83;;;2.63;;
317;SDS011;146;53.448;10.228;2022-10-01T04:01:14;3.37;;;3.17;;
317;SDS011;146;53.448;10.228;2022-10-01T04:03:41;3.00;;;2.80;;
317;SDS011;146;53.448;10.228;2022-10-01T04:06:08;2.93;;;2.73;;
317;SDS011;146;53.448;10.228;2022-10-01T04:08:36;3.80;;;2.93;;
317;SDS011;146;53.448;10.228;2022-10-01T04:11:04;3.20;;;2.90;;
317;SDS011;146;53.448;10.228;2022-10-01T04:13:32;3.20;;;2.77;;
317;SDS011;146;53.448;10.228;2022-10-01T04:15:59;7.50;;;3.10;;
317;SDS011;146;53.448;10.228;2022-10-01T04:18:26;3.00;;;2.80;;
317;SDS011;146;53.448;10.228;2022-10-01T04:20:53;3.30;;;3.00;;
317;SDS011;146;53.448;10.228;2022-10-01T04:23:19;3.63;;;2.93;;
317;SDS011;146;53.448;10.228;2022-10-01T04:25:47;3.63;;;3.33;;
317;SDS011;146;53.448;10.228;2022-10-01T04:28:16;2.83;;;2.63;;
317;SDS011;146;53.448;10.228;2022-10-01T04:30:44;4.50;;;2.97;;
317;SDS011;146;53.448;10.228;2022-10-01T04:33:12;3.63;;;3.20;;
317;SDS011;146;53.448;10.228;2022-10-01T04:35:40;3.20;;;3.00;;
317;SDS011;146;53.448;10.228;2022-10-01T04:38:10;4.10;;;3.20;;
317;SDS011;146;53.448;10.228;2022-10-01T04:40:38;3.83;;;3.53;;
317;SDS011;146;53.448;10.228;2022-10-01T04:43:05;3.17;;;2.97;;
317;SDS011;146;53.448;10.228;2022-10-01T04:45:35;5.80;;;3.50;;
317;SDS011;146;53.448;10.228;2022-10-01T04:48:02;3.97;;;3.27;;
317;SDS011;146;53.448;10.228;2022-10-01T04:50:30;3.73;;;3.53;;
317;SDS011;146;53.448;10.228;2022-10-01T04:52:57;2.87;;;2.57;;
317;SDS011;146;53.448;10.228;2022-10-01T04:55:24;3.63;;;3.30;;
317;SDS011;146;53.448;10.228;2022-10-01T04:57:50;3.33;;;3.13;;
317;SDS011;146;53.448;10.228;2022-10-01T05:00:18;3.60;;;3.40;;
317;SDS011;146;53.448;10.228;2022-10-01T05:02:49;3.70;;;3.40;;
317;SDS011;146;53.448;10.228;2022-10-01T05:05:17;3.27;;;2.97;;
317;SDS011;146;53.448;10.228;2022-10-01T05:07:45;3.93;;;3.60;;
317;SDS011;146;53.448;10.228;2022-10-01T05:10:13;5.87;;;3.20;;
317;SDS011;146;53.448;10.228;2022-10-01T05:12:42;4.00;;;3.70;;
317;SDS011;146;53.448;10.228;2022-10-01T05:15:09;4.27;;;3.30;;
317;SDS011;146;53.448;10.228;2022-10-01T05:17:36;3.90;;;3.60;;
317;SDS011;146;53.448;10.228;2022-10-01T05:20:05;4.07;;;3.77;;
317;SDS011;146;53.448;10.228;2022-10-01T05:22:33;4.50;;;4.10;;
317;SDS011;146;53.448;10.228;2022-10-01T05:25:00;4.23;;;3.83;;
317;SDS011;146;53.448;10.228;2022-10-01T05:27:27;4.33;;;3.93;;
317;SDS011;146;53.448;10.228;2022-10-01T05:29:55;4.80;;;3.90;;
317;SDS011;146;53.448;10.228;2022-10-01T05:32:23;4.47;;;4.03;;
317;SDS011;146;53.448;10.228;2022-10-01T05:34:51;6.20;;;4.03;;
317;SDS011;146;53.448;10.228;2022-10-01T05:37:19;5.30;;;4.80;;
317;SDS011;146;53.448;10.228;2022-10-01T05:39:46;4.67;;;4.37;;
317;SDS011;146;53.448;10.228;2022-10-01T05:42:13;4.23;;;3.93;;
317;SDS011;146;53.448;10.228;2022-10-01T05:44:39;5.13;;;4.63;;
317;SDS011;146;53.448;10.228;2022-10-01T05:47:10;5.13;;;4.73;;
317;SDS011;146;53.448;10.228;2022-10-01T05:49:37;5.63;;;4.63;;
317;SDS011;146;53.448;10.228;2022-10-01T05:52:06;4.73;;;4.20;;
317;SDS011;146;53.448;10.228;2022-10-01T05:54:35;4.73;;;4.43;;
317;SDS011;146;53.448;10.228;2022-10-01T05:57:02;4.83;;;4.10;;
317;SDS011;146;53.448;10.228;2022-10-01T05:59:29;4.63;;;4.27;;
317;SDS011;146;53.448;10.228;2022-10-01T06:04:41;4.63;;;4.23;;
317;SDS011;146;53.448;10.228;2022-10-01T06:07:09;4.50;;;4.10;;
317;SDS011;146;53.448;10.228;2022-10-01T06:09:37;4.10;;;3.80;;
317;SDS011;146;53.448;10.228;2022-10-01T06:12:06;4.90;;;4.50;;
317;SDS011;146;53.448;10.228;2022-10-01T06:14:35;5.87;;;4.50;;
317;SDS011;146;53.448;10.228;2022-10-01T06:17:03;7.07;;;4.23;;
317;SDS011;146;53.448;10.228;2022-10-01T06:19:29;5.40;;;4.90;;
317;SDS011;146;53.448;10.228;2022-10-01T06:21:56;4.93;;;4.53;;
317;SDS011;146;53.448;10.228;2022-10-01T06:24:23;4.80;;;4.40;;
317;SDS011;146;53.448;10.228;2022-10-01T06:26:51;4.37;;;4.07;;
317;SDS011;146;53.448;10.228;2022-10-01T06:29:18;3.90;;;3.60;;
317;SDS011;146;53.448;10.228;2022-10-01T06:31:45;5.30;;;4.90;;
317;SDS011;146;53.448;10.228;2022-10-01T06:34:12;4.33;;;3.97;;
317;SDS011;146;53.448;10.228;2022-10-01T06:36:39;4.33;;;4.00;;
317;SDS011;146;53.448;10.228;2022-10-01T06:39:05;4.77;;;4.27;;
317;SDS011;146;53.448;10.228;2022-10-01T06:41:32;4.20;;;3.90;;
317;SDS011;146;53.448;10.228;2022-10-01T06:44:00;4.53;;;4.20;;
317;SDS011;146;53.448;10.228;2022-10-01T06:46:27;4.20;;;3.80;;
317;SDS011;146;53.448;10.228;2022-10-01T06:48:54;4.87;;;4.43;;
317;SDS011;146;53.448;10.228;2022-10-01T06:51:20;6.60;;;4.70;;
317;SDS011;146;53.448;10.228;2022-10-01T06:54:07;4.73;;;4.33;;
317;SDS011;146;53.448;10.228;2022-10-01T06:56:35;5.03;;;4.73;;
317;SDS011;146;53.448;10.228;2022-10-01T06:59:03;5.60;;;4.20;;
317;SDS011;146;53.448;10.228;2022-10-01T07:01:30;5.00;;;4.60;;
317;SDS011;146;53.448;10.228;2022-10-01T07:03:57;4.20;;;3.90;;
317;SDS011;146;53.448;10.228;2022-10-01T07:06:24;4.00;;;3.60;;
317;SDS011;146;53.448;10.228;2022-10-01T07:08:50;4.53;;;4.13;;
317;SDS011;146;53.448;10.228;2022-10-01T07:11:18;4.83;;;4.43;;
317;SDS011;146;53.448;10.228;2022-10-01T07:13:45;4.93;;;3.93;;
317;SDS011;146;53.448;10.228;2022-10-01T07:16:13;5.57;;;4.10;;
317;SDS011;146;53.448;10.228;2022-10-01T07:18:39;4.03;;;3.80;;
317;SDS011;146;53.448;10.228;2022-10-01T07:21:06;4.30;;;3.80;;
317;SDS011;146;53.448;10.228;2022-10-01T07:23:33;4.10;;;3.80;;
317;SDS011;146;53.448;10.228;2022-10-01T07:26:03;4.73;;;4.33;;
317;SDS011;146;53.448;10.228;2022-10-01T07:28:32;5.53;;;4.00;;
317;SDS011;146;53.448;10.228;2022-10-01T07:31:00;6.50;;;6.00;;
317;SDS011;146;53.448;10.228;2022-10-01T07:33:30;4.80;;;4.40;;
317;SDS011;146;53.448;10.228;2022-10-01T07:35:58;4.40;;;4.10;;
317;SDS011;146;53.448;10.228;2022-10-01T07:38:26;4.27;;;3.83;;
317;SDS011;146;53.448;10.228;2022-10-01T07:40:52;4.77;;;4.47;;
317;SDS011;146;53.448;10.228;2022-10-01T07:43:19;5.10;;;4.70;;
317;SDS011;146;53.448;10.228;2022-10-01T07:45:46;5.33;;;4.93;;
317;SDS011;146;53.448;10.228;2022-10-01T07:48:13;6.87;;;6.37;;
317;SDS011;146;53.448;10.228;2022-10-01T07:50:42;5.67;;;5.27;;
317;SDS011;146;53.448;10.228;2022-10-01T07:53:10;6.17;;;5.73;;
317;SDS011;146;53.448;10.228;2022-10-01T07:55:37;5.47;;;5.07;;
317;SDS011;146;53.448;10.228;2022-10-01T07:58:06;8.50;;;5.27;;
317;SDS011;146;53.448;10.228;2022-10-01T08:00:36;5.57;;;5.07;;
317;SDS011;146;53.448;10.228;2022-10-01T08:03:03;7.77;;;7.17;;
317;SDS011;146;53.448;10.228;2022-10-01T08:05:31;9.30;;;4.50;;
317;SDS011;146;53.448;10.228;2022-10-01T08:08:02;4.90;;;4.27;;
317;SDS011;146;53.448;10.228;2022-10-01T08:10:31;4.37;;;4.07;;
317;SDS011;146;53.448;10.228;2022-10-01T08:12:59;4.27;;;3.97;;
317;SDS011;146;53.448;10.228;2022-10-01T08:15:26;4.90;;;4.60;;
317;SDS011;146;53.448;10.228;2022-10-01T08:17:53;6.67;;;4.47;;
317;SDS011;146;53.448;10.228;2022-10-01T08:20:20;3.63;;;3.43;;
317;SDS011;146;53.448;10.228;2022-10-01T08:22:46;5.63;;;5.13;;
317;SDS011;146;53.448;10.228;2022-10-01T08:25:15;4.23;;;3.90;;
317;SDS011;146;53.448;10.228;2022-10-01T08:27:41;4.07;;;3.77;;
317;SDS011;146;53.448;10.228;2022-10-01T08:30:08;3.80;;;3.50;;
317;SDS011;146;53.448;10.228;2022-10-01T08:32:35;3.70;;;3.47;;
317;SDS011;146;53.448;10.228;2022-10-01T08:35:03;4.03;;;3.73;;
317;SDS011;146;53.448;10.228;2022-10-01T08:37:30;4.50;;;4.10;;
317;SDS011;146;53.448;10.228;2022-10-01T08:39:57;4.30;;;3.80;;
317;SDS011;146;53.448;10.228;2022-10-01T08:42:30;3.63;;;3.33;;
317;SDS011;146;53.448;10.228;2022-10-01T08:45:10;3.50;;;3.30;;
317;SDS011;146;53.448;10.228;2022-10-01T08:47:40;2.97;;;2.73;;
317;SDS011;146;53.448;10.228;2022-10-01T08:50:11;3.63;;;3.43;;
317;SDS011;146;53.448;10.228;2022-10-01T08:52:45;3.70;;;3.40;;
317;SDS011;146;53.448;10.228;2022-10-01T08:55:18;3.13;;;2.83;;
317;SDS011;146;53.448;10.228;2022-10-01T08:57:50;3.40;;;3.17;;
317;SDS011;146;53.448;10.228;2022-10-01T09:00:19;2.80;;;2.63;;
317;SDS011;146;53.448;10.228;2022-10-01T09:02:47;3.20;;;3.00;;
317;SDS011;146;53.448;10.228;2022-10-01T09:05:19;3.60;;;3.40;;
317;SDS011;146;53.448;10.228;2022-10-01T09:07:52;3.27;;;3.07;;
317;SDS011;146;53.448;10.228;2022-10-01T09:10:33;3.20;;;2.97;;
317;SDS011;146;53.448;10.228;2022-10-01T09:13:12;3.00;;;2.80;;
317;SDS011;146;53.448;10.228;2022-10-01T09:15:55;3.13;;;2.87;;
317;SDS011;146;53.448;10.228;2022-10-01T09:18:34;3.27;;;3.07;;
317;SDS011;146;53.448;10.228;2022-10-01T09:21:10;2.70;;;2.50;;
317;SDS011;146;53.448;10.228;2022-10-01T09:23:43;2.87;;;2.67;;
317;SDS011;146;53.448;10.228;2022-10-01T09:26:21;2.83;;;2.63;;
317;SDS011;146;53.448;10.228;2022-10-01T09:28:49;2.90;;;2.70;;
317;SDS011;146;53.448;10.228;2022-10-01T09:31:20;3.03;;;2.83;;
317;SDS011;146;53.448;10.228;2022-10-01T09:33:54;4.83;;;2.77;;
317;SDS011;146;53.448;10.228;2022-10-01T09:36:28;2.83;;;2.63;;
317;SDS011;146;53.448;10.228;2022-10-01T09:39:01;3.20;;;3.00;;
317;SDS011;146;53.448;10.228;2022-10-01T09:41:36;3.77;;;3.57;;
317;SDS011;146;53.448;10.228;2022-10-01T09:44:04;3.20;;;3.00;;
317;SDS011;146;53.448;10.228;2022-10-01T09:46:35;3.27;;;3.07;;
317;SDS011;146;53.448;10.228;2022-10-01T09:49:02;3.53;;;3.23;;
317;SDS011;146;53.448;10.228;2022-10-01T09:51:37;4.20;;;3.47;;
317;SDS011;146;53.448;10.228;2022-10-01T09:54:10;3.53;;;3.23;;
317;SDS011;146;53.448;10.228;2022-10-01T09:56:41;3.80;;;3.27;;
317;SDS011;146;53.448;10.228;2022-10-01T09:59:13;3.63;;;3.43;;
317;SDS011;146;53.448;10.228;2022-10-01T10:01:45;4.60;;;4.30;;
317;SDS011;146;53.448;10.228;2022-10-01T10:04:17;4.17;;;3.87;;
317;SDS011;146;53.448;10.228;2022-10-01T10:06:47;3.93;;;3.63;;
317;SDS011;146;53.448;10.228;2022-10-01T10:09:15;5.00;;;4.50;;
317;SDS011;146;53.448;10.228;2022-10-01T10:11:43;4.60;;;4.17;;
317;SDS011;146;53.448;10.228;2022-10-01T10:14:13;4.67;;;4.27;;
317;SDS011;146;53.448;10.228;2022-10-01T10:16:44;5.00;;;4.60;;
317;SDS011;146;53.448;10.228;2022-10-01T10:19:16;5.13;;;4.63;;
317;SDS011;146;53.448;10.228;2022-10-01T10:21:49;5.20;;;4.80;;
317;SDS011;146;53.448;10.228;2022-10-01T10:24:21;5.10;;;4.70;;
317;SDS011;146;53.448;10.228;2022-10-01T10:26:51;5.60;;;5.20;;
317;SDS011;146;53.448;10.228;2022-10-01T10:29:25;5.07;;;4.67;;
317;SDS011;146;53.448;10.228;2022-10-01T10:31:55;5.17;;;4.77;;
317;SDS011;146;53.448;10.228;2022-10-01T10:34:24;4.37;;;3.97;;
317;SDS011;146;53.448;10.228;2022-10-01T10:36:56;5.70;;;5.23;;
317;SDS011;146;53.448;10.228;2022-10-01T10:39:25;5.67;;;5.27;;
317;SDS011;146;53.448;10.228;2022-10-01T10:41:54;5.30;;;5.00;;
317;SDS011;146;53.448;10.228;2022-10-01T10:44:25;5.50;;;5.10;;
317;SDS011;146;53.448;10.228;2022-10-01T10:46:59;5.03;;;4.53;;
317;SDS011;146;53.448;10.228;2022-10-01T10:49:28;4.80;;;4.50;;
317;SDS011;146;53.448;10.228;2022-10-01T10:51:57;5.33;;;4.90;;
317;SDS011;146;53.448;10.228;2022-10-01T10:54:27;8.80;;;5.60;;
317;SDS011;146;53.448;10.228;2022-10-01T10:56:57;5.23;;;4.77;;
317;SDS011;146;53.448;10.228;2022-10-01T10:59:27;5.27;;;4.83;;
317;SDS011;146;53.448;10.228;2022-10-01T11:01:56;5.07;;;4.67;;
317;SDS011;146;53.448;10.228;2022-10-01T11:04:30;5.80;;;5.30;;
317;SDS011;146;53.448;10.228;2022-10-01T11:07:04;4.97;;;4.67;;
317;SDS011;146;53.448;10.228;2022-10-01T11:09:34;5.50;;;5.10;;
317;SDS011;146;53.448;10.228;2022-10-01T11:12:20;4.70;;;4.40;;
317;SDS011;146;53.448;10.228;2022-10-01T11:15:03;6.40;;;5.80;;
317;SDS011;146;53.448;10.228;2022-10-01T11:17:45;5.90;;;5.50;;
317;SDS011;146;53.448;10.228;2022-10-01T11:20:36;5.33;;;5.00;;
317;SDS011;146;53.448;10.228;2022-10-01T11:23:29;5.23;;;4.83;;
317;SDS011;146;53.448;10.228;2022-10-01T11:26:16;4.83;;;4.53;;
317;SDS011;146;53.448;10.228;2022-10-01T11:28:52;5.90;;;5.40;;
317;SDS011;146;53.448;10.228;2022-10-01T11:31:33;5.70;;;5.30;;
317;SDS011;146;53.448;10.228;2022-10-01T11:37:14;5.93;;;5.33;;
317;SDS011;146;53.448;10.228;2022-10-01T11:39:54;5.60;;;5.03;;
317;SDS011;146;53.448;10.228;2022-10-01T11:42:29;5.80;;;5.20;;
317;SDS011;146;53.448;10.228;2022-10-01T11:45:00;5.97;;;5.47;;
317;SDS011;146;53.448;10.228;2022-10-01T11:47:32;6.97;;;4.80;;
317;SDS011;146;53.448;10.228;2022-10-01T11:50:06;7.03;;;5.30;;
317;SDS011;146;53.448;10.228;2022-10-01T11:52:42;6.50;;;5.90;;
317;SDS011;146;53.448;10.228;2022-10-01T11:55:12;5.53;;;5.03;;
317;SDS011;146;53.448;10.228;2022-10-01T11:58:05;5.03;;;4.67;;
317;SDS011;146;53.448;10.228;2022-10-01T12:00:56;4.43;;;4.03;;
317;SDS011;146;53.448;10.228;2022-10-01T12:03:31;5.17;;;4.77;;
317;SDS011;146;53.448;10.228;2022-10-01T12:06:07;4.30;;;3.80;;
317;SDS011;146;53.448;10.228;2022-10-01T12:08:38;4.80;;;4.13;;
317;SDS011;146;53.448;10.228;2022-10-01T12:11:13;3.90;;;3.60;;
317;SDS011;146;53.448;10.228;2022-10-01T12:13:46;4.40;;;4.00;;
317;SDS011;146;53.448;10.228;2022-10-01T12:16:19;3.60;;;3.30;;
317;SDS011;146;53.448;10.228;2022-10-01T12:18:57;4.50;;;3.87;;
317;SDS011;146;53.448;10.228;2022-10-01T12:21:28;4.03;;;3.70;;
317;SDS011;146;53.448;10.228;2022-10-01T12:24:02;4.87;;;4.43;;
317;SDS011;146;53.448;10.228;2022-10-01T12:26:37;4.50;;;4.20;;
317;SDS011;146;53.448;10.228;2022-10-01T12:29:12;5.00;;;3.70;;
317;SDS011;146;53.448;10.228;2022-10-01T12:31:47;3.67;;;3.47;;
317;SDS011;146;53.448;10.228;2022-10-01T12:38:04;3.50;;;3.30;;
317;SDS011;146;53.448;10.228;2022-10-01T12:40:51;4.20;;;3.30;;
317;SDS011;146;53.448;10.228;2022-10-01T12:46:32;3.23;;;3.03;;
317;SDS011;146;53.448;10.228;2022-10-01T12:50:14;2.80;;;2.27;;
317;SDS011;146;53.448;10.228;2022-10-01T13:00:18;2.40;;;2.20;;
317;SDS011;146;53.448;10.228;2022-10-01T13:10:53;2.87;;;2.43;;
317;SDS011;146;53.448;10.228;2022-10-01T13:13:28;4.10;;;2.57;;
317;SDS011;146;53.448;10.228;2022-10-01T13:16:47;2.87;;;2.67;;
317;SDS011;146;53.448;10.228;2022-10-01T13:19:21;2.60;;;2.47;;
317;SDS011;146;53.448;10.228;2022-10-01T13:29:11;1.83;;;1.73;;
317;SDS011;146;53.448;10.228;2022-10-01T13:31:53;2.50;;;1.97;;
317;SDS011;146;53.448;10.228;2022-10-01T13:37:11;1.50;;;1.40;;
317;SDS011;146;53.448;10.228;2022-10-01T13:39:45;1.77;;;1.67;;
317;SDS011;146;53.448;10.228;2022-10-01T13:42:18;3.47;;;2.30;;
317;SDS011;146;53.448;10.228;2022-10-01T13:45:53;1.97;;;1.70;;
317;SDS011;146;53.448;10.228;2022-10-01T13:48:44;1.30;;;1.03;;
317;SDS011;146;53.448;10.228;2022-10-01T13:51:13;1.83;;;1.17;;
317;SDS011;146;53.448;10.228;2022-10-01T13:53:45;2.23;;;1.03;;
317;SDS011;146;53.448;10.228;2022-10-01T13:56:26;2.50;;;1.13;;
317;SDS011;146;53.448;10.228;2022-10-01T13:58:56;2.20;;;1.30;;
317;SDS011;146;53.448;10.228;2022-10-01T14:04:08;2.40;;;0.70;;
317;SDS011;146;53.448;10.228;2022-10-01T14:06:46;2.77;;;0.97;;
317;SDS011;146;53.448;10.228;2022-10-01T14:09:17;1.07;;;0.97;;
317;SDS011;146;53.448;10.228;2022-10-01T14:11:48;2.03;;;0.93;;
317;SDS011;146;53.448;10.228;2022-10-01T14:14:42;1.23;;;1.00;;
317;SDS011;146;53.448;10.228;2022-10-01T14:17:35;1.23;;;1.13;;
317;SDS011;146;53.448;10.228;2022-10-01T14:20:03;2.97;;;1.53;;
317;SDS011;146;53.448;10.228;2022-10-01T14:22:34;1.47;;;1.37;;
317;SDS011;146;53.448;10.228;2022-10-01T14:25:14;1.33;;;0.97;;
317;SDS011;146;53.448;10.228;2022-10-01T14:27:56;1.73;;;1.63;;
317;SDS011;146;53.448;10.228;2022-10-01T14:30:38;1.53;;;1.30;;
317;SDS011;146;53.448;10.228;2022-10-01T14:33:19;1.83;;;1.40;;
317;SDS011;146;53.448;10.228;2022-10-01T14:36:05;2.23;;;1.53;;
317;SDS011;146;53.448;10.228;2022-10-01T14:38:40;2.40;;;1.20;;
317;SDS011;146;53.448;10.228;2022-10-01T14:41:13;1.20;;;1.20;;
317;SDS011;146;53.448;10.228;2022-10-01T14:43:45;1.40;;;1.30;;
317;SDS011;146;53.448;10.228;2022-10-01T14:46:14;1.43;;;1.30;;
317;SDS011;146;53.448;10.228;2022-10-01T14:48:43;1.37;;;1.27;;
317;SDS011;146;53.448;10.228;2022-10-01T14:51:21;1.57;;;1.47;;
317;SDS011;146;53.448;10.228;2022-10-01T14:53:50;2.17;;;2.07;;
317;SDS011;146;53.448;10.228;2022-10-01T14:56:19;2.50;;;1.47;;
317;SDS011;146;53.448;10.228;2022-10-01T14:58:47;3.83;;;1.70;;
317;SDS011;146;53.448;10.228;2022-10-01T15:01:22;3.00;;;1.40;;
317;SDS011;146;53.448;10.228;2022-10-01T15:03:50;1.00;;;0.90;;
317;SDS011;146;53.448;10.228;2022-10-01T15:06:18;1.47;;;1.37;;
317;SDS011;146;53.448;10.228;2022-10-01T15:08:47;1.40;;;1.30;;
317;SDS011;146;53.448;10.228;2022-10-01T15:11:15;1.40;;;1.30;;
317;SDS011;146;53.448;10.228;2022-10-01T15:13:45;3.67;;;1.33;;
317;SDS011;146;53.448;10.228;2022-10-01T15:16:15;1.63;;;1.47;;
317;SDS011;146;53.448;10.228;2022-10-01T15:18:46;2.47;;;1.70;;
317;SDS011;146;53.448;10.228;2022-10-01T15:21:18;1.50;;;1.40;;
317;SDS011;146;53.448;10.228;2022-10-01T15:23:47;2.50;;;1.40;;
317;SDS011;146;53.448;10.228;2022-10-01T15:26:17;1.67;;;1.47;;
317;SDS011;146;53.448;10.228;2022-10-01T15:28:47;3.03;;;1.80;;
317;SDS011;146;53.448;10.228;2022-10-01T15:31:14;2.27;;;1.63;;
317;SDS011;146;53.448;10.228;2022-10-01T15:33:44;2.30;;;1.67;;
317;SDS011;146;53.448;10.228;2022-10-01T15:36:14;2.03;;;1.50;;
317;SDS011;146;53.448;10.228;2022-10-01T15:38:42;1.80;;;1.70;;
317;SDS011;146;53.448;10.228;2022-10-01T15:41:16;3.47;;;1.40;;
317;SDS011;146;53.448;10.228;2022-10-01T15:43:47;1.30;;;1.20;;
317;SDS011;146;53.448;10.228;2022-10-01T15:46:18;2.27;;;1.83;;
317;SDS011;146;53.448;10.228;2022-10-01T15:49:14;1.40;;;1.30;;
317;SDS011;146;53.448;10.228;2022-10-01T15:51:46;7.37;;;2.07;;
317;SDS011;146;53.448;10.228;2022-10-01T15:54:30;2.63;;;2.00;;
317;SDS011;146;53.448;10.228;2022-10-01T15:56:57;1.63;;;1.47;;
317;SDS011;146;53.448;10.228;2022-10-01T15:59:24;5.43;;;1.60;;
317;SDS011;146;53.448;10.228;2022-10-01T16:01:51;2.00;;;1.80;;
317;SDS011;146;53.448;10.228;2022-10-01T16:04:19;1.50;;;1.40;;
317;SDS011;146;53.448;10.228;2022-10-01T16:06:46;1.77;;;1.67;;
317;SDS011;146;53.448;10.228;2022-10-01T16:09:17;1.90;;;1.80;;
317;SDS011;146;53.448;10.228;2022-10-01T16:11:49;1.50;;;1.40;;
317;SDS011;146;53.448;10.228;2022-10-01T16:14:22;1.83;;;1.60;;
317;SDS011;146;53.448;10.228;2022-10-01T16:19:52;2.43;;;2.00;;
317;SDS011;146;53.448;10.228;2022-10-01T16:22:21;2.47;;;2.27;;
317;SDS011;146;53.448;10.228;2022-10-01T16:24:49;2.30;;;2.10;;
317;SDS011;146;53.448;10.228;2022-10-01T16:27:19;2.40;;;2.30;;
317;SDS011;146;53.448;10.228;2022-10-01T16:29:48;3.10;;;2.53;;
317;SDS011;146;53.448;10.228;2022-10-01T16:32:17;2.60;;;2.07;;
317;SDS011;146;53.448;10.228;2022-10-01T16:34:44;2.30;;;1.90;;
317;SDS011;146;53.448;10.228;2022-10-01T16:37:12;2.33;;;2.13;;
317;SDS011;146;53.448;10.228;2022-10-01T16:39:39;6.93;;;3.00;;